Time;durP1;ratioP1;P1;durP2;ratioP2;P2;SDS_P1;SDS_P2;PMS_P1;PMS_P2;Temp;Humidity;BMP_temperature;BMP_pressure;BME280_temperature;BME280_humidity;BME280_pressure;Samples;Min_cycle;Max_cycle;Signal;HPM_P1;HPM_P2
2021/05/03 00:02:11;;;;;;;7.00;2.63;;;;;;;3.91;73.48;102111.75;5114105;28;20510;-55
2021/05/03 00:04:37;;;;;;;5.85;2.83;;;;;;;3.84;73.77;102101.41;5113595;28;20048;-52
2021/05/03 00:07:04;;;;;;;7.97;3.45;;;;;;;3.86;73.53;102097.06;5113777;28;20043;-50
2021/05/03 00:09:30;;;;;;;6.60;3.13;;;;;;;3.82;74.25;102102.34;5115004;28;20046;-53
2021/05/03 00:11:56;;;;;;;6.35;3.30;;;;;;;3.81;74.40;102106.69;5113925;28;20071;-52
2021/05/03 00:14:23;;;;;;;6.72;3.22;;;;;;;3.83;74.82;102101.44;5115259;28;20052;-48
2021/05/03 00:16:49;;;;;;;8.45;3.50;;;;;;;3.82;74.69;102108.41;5103470;28;20044;-48
2021/05/03 00:19:15;;;;;;;6.05;3.30;;;;;;;3.89;74.18;102109.16;5094730;28;20051;-47
2021/05/03 00:21:42;;;;;;;8.45;3.60;;;;;;;3.88;74.48;102104.84;5094977;28;20044;-49
2021/05/03 00:24:09;;;;;;;12.25;3.38;;;;;;;3.75;75.67;102100.72;5094562;28;20039;-52
2021/05/03 00:26:35;;;;;;;7.32;3.17;;;;;;;3.73;75.66;102101.59;5094889;28;20032;-48
2021/05/03 00:29:01;;;;;;;6.90;3.20;;;;;;;3.66;76.06;102099.13;5094617;28;20050;-53
2021/05/03 00:31:28;;;;;;;6.95;3.47;;;;;;;3.63;76.25;102100.03;5095109;28;20040;-50
2021/05/03 00:33:54;;;;;;;6.75;3.53;;;;;;;3.62;76.19;102093.13;5094476;28;20051;-53
2021/05/03 00:36:20;;;;;;;6.90;3.47;;;;;;;3.61;76.29;102088.78;5083482;28;20051;-52
2021/05/03 00:38:47;;;;;;;7.60;3.22;;;;;;;3.57;76.11;102097.53;5114670;28;20480;-52
2021/05/03 00:41:13;;;;;;;7.20;3.53;;;;;;;3.68;75.68;102089.53;5114695;28;20489;-52
2021/05/03 00:43:39;;;;;;;8.82;3.80;;;;;;;3.64;75.49;102095.69;5114546;28;20046;-51
2021/05/03 00:46:07;;;;;;;6.53;3.13;;;;;;;3.61;76.59;102096.59;5109176;28;20089;-53
2021/05/03 00:48:34;;;;;;;5.97;3.22;;;;;;;3.58;75.24;102099.25;5093402;28;20063;-51
2021/05/03 00:51:00;;;;;;;7.55;3.42;;;;;;;3.68;75.38;102099.94;5113155;28;20047;-53
2021/05/03 00:53:29;;;;;;;6.75;3.40;;;;;;;3.59;76.18;102094.94;5114431;28;20047;-49
2021/05/03 00:55:56;;;;;;;9.00;3.83;;;;;;;3.49;76.84;102088.97;5113212;28;20081;-50
2021/05/03 00:58:23;;;;;;;6.45;3.05;;;;;;;3.56;75.32;102090.63;5094115;28;20048;-53
2021/05/03 01:00:49;;;;;;;8.05;3.35;;;;;;;3.57;75.85;102107.94;5094145;28;20519;-50
2021/05/03 01:03:15;;;;;;;8.68;3.83;;;;;;;3.53;76.71;102116.66;5093832;28;20368;-47
2021/05/03 01:05:41;;;;;;;8.57;3.30;;;;;;;3.59;75.81;102115.75;5094025;28;20392;-51
2021/05/03 01:08:08;;;;;;;6.70;3.22;;;;;;;3.55;75.65;102110.56;5092532;28;20043;-48
2021/05/03 01:10:34;;;;;;;5.80;3.00;;;;;;;3.62;75.18;102106.13;5093848;28;20055;-48
2021/05/03 01:13:00;;;;;;;5.88;3.22;;;;;;;3.53;75.70;102117.53;5094002;28;20391;-51
2021/05/03 01:15:27;;;;;;;8.27;3.70;;;;;;;3.51;75.93;102100.22;5093712;28;20040;-49
2021/05/03 01:17:57;;;;;;;8.07;3.72;;;;;;;3.49;76.03;102099.38;5093564;28;20380;-49
2021/05/03 01:20:26;;;;;;;7.90;3.25;;;;;;;3.51;76.00;102098.47;5093541;28;20044;-50
2021/05/03 01:22:56;;;;;;;9.95;4.15;;;;;;;3.52;76.16;102095.00;5093524;28;20473;-46
2021/05/03 01:25:25;;;;;;;6.75;3.30;;;;;;;3.45;75.64;102096.00;5083847;28;20040;-50
2021/05/03 01:27:52;;;;;;;9.25;3.72;;;;;;;3.39;75.48;102088.28;5112330;28;20051;-52
2021/05/03 01:30:18;;;;;;;8.20;3.80;;;;;;;3.45;75.38;102089.91;5095735;28;20055;-49
2021/05/03 01:32:44;;;;;;;6.75;3.45;;;;;;;3.42;75.74;102088.22;5114059;28;20051;-51
2021/05/03 01:35:15;;;;;;;10.27;4.03;;;;;;;3.35;75.96;102091.78;5107876;28;20427;-50
2021/05/03 01:37:41;;;;;;;8.73;3.63;;;;;;;3.31;76.46;102088.41;5093224;28;20067;-51
2021/05/03 01:40:09;;;;;;;5.93;3.33;;;;;;;3.28;76.70;102090.19;5093161;28;20045;-52
2021/05/03 01:42:36;;;;;;;10.40;4.03;;;;;;;3.26;76.61;102081.53;5093237;28;20052;-48
2021/05/03 01:45:04;;;;;;;8.05;3.95;;;;;;;3.29;76.71;102090.16;5111798;28;20370;-49
2021/05/03 01:47:31;;;;;;;7.53;3.92;;;;;;;3.32;76.38;102084.91;5082446;28;20047;-49
2021/05/03 01:49:57;;;;;;;9.65;4.22;;;;;;;3.30;76.00;102083.19;5091701;28;20056;-48
2021/05/03 01:52:24;;;;;;;8.43;3.88;;;;;;;3.37;76.43;102077.03;5092996;28;20059;-46
2021/05/03 01:54:51;;;;;;;10.77;4.60;;;;;;;3.25;76.89;102082.44;5091807;28;20071;-46
2021/05/03 01:57:18;;;;;;;7.88;4.00;;;;;;;3.20;77.00;102091.16;5095343;28;20051;-48
2021/05/03 01:59:47;;;;;;;9.60;3.45;;;;;;;3.19;77.08;102085.97;5091677;28;20070;-47
2021/05/03 02:02:14;;;;;;;8.57;3.58;;;;;;;3.18;76.86;102092.91;5091556;28;20466;-52
2021/05/03 02:04:40;;;;;;;7.95;4.03;;;;;;;3.13;76.41;102091.25;5092806;28;20494;-50
2021/05/03 02:07:06;;;;;;;7.10;3.80;;;;;;;3.12;76.25;102081.72;5092856;28;20462;-51
2021/05/03 02:09:33;;;;;;;7.47;4.10;;;;;;;3.07;76.57;102084.41;5092946;28;20406;-51
2021/05/03 02:12:00;;;;;;;7.15;3.53;;;;;;;3.03;75.99;102086.19;5074755;28;20073;-47
2021/05/03 02:14:26;;;;;;;7.85;3.85;;;;;;;3.03;75.99;102090.53;5092512;28;20070;-50
2021/05/03 02:16:52;;;;;;;7.82;4.00;;;;;;;3.00;76.37;102094.03;5091290;28;20387;-51
2021/05/03 02:19:19;;;;;;;9.90;4.47;;;;;;;3.01;76.69;102090.56;5091793;28;20123;-49
2021/05/03 02:21:45;;;;;;;8.23;4.35;;;;;;;3.10;76.02;102089.56;5094708;28;20051;-50
2021/05/03 02:24:11;;;;;;;9.85;4.20;;;;;;;3.01;77.49;102087.97;5111308;28;20061;-51
2021/05/03 02:26:38;;;;;;;12.98;4.75;;;;;;;2.91;77.60;102081.16;5112918;28;20498;-51
2021/05/03 02:29:04;;;;;;;9.15;4.43;;;;;;;2.91;77.54;102072.50;5112177;28;20074;-51
2021/05/03 02:31:30;;;;;;;10.63;4.50;;;;;;;2.87;78.07;102069.94;5112671;28;20468;-52
2021/05/03 02:33:56;;;;;;;9.75;4.50;;;;;;;2.86;77.86;102075.16;5111311;28;20047;-50
2021/05/03 02:36:23;;;;;;;11.32;4.55;;;;;;;2.86;77.37;102070.84;5111530;28;20052;-52
2021/05/03 02:38:50;;;;;;;9.57;4.25;;;;;;;2.84;78.24;102066.53;5111273;28;20474;-48
2021/05/03 02:41:16;;;;;;;10.43;5.18;;;;;;;2.76;79.38;102064.03;5094365;28;20379;-52
2021/05/03 02:43:42;;;;;;;10.98;4.60;;;;;;;2.78;77.50;102064.00;5112569;28;20063;-53
2021/05/03 02:46:09;;;;;;;9.70;5.07;;;;;;;2.74;77.05;102058.00;5112643;28;20043;-52
2021/05/03 02:48:35;;;;;;;9.43;4.50;;;;;;;2.75;77.30;102058.84;5112497;28;20402;-52
2021/05/03 02:51:02;;;;;;;9.38;5.18;;;;;;;2.77;76.82;102057.94;5086325;28;20458;-50
2021/05/03 02:53:28;;;;;;;9.60;4.72;;;;;;;2.80;77.14;102055.31;5092384;28;20059;-50
2021/05/03 02:55:55;;;;;;;10.10;4.97;;;;;;;2.78;77.67;102053.59;5090966;28;20044;-51
2021/05/03 02:58:21;;;;;;;9.20;5.20;;;;;;;2.70;77.58;102049.38;5090894;28;20048;-51
2021/05/03 03:00:47;;;;;;;13.02;5.70;;;;;;;2.70;78.19;102056.31;5092085;28;20054;-51
2021/05/03 03:03:14;;;;;;;11.48;5.95;;;;;;;2.77;77.81;102051.88;5091946;28;20047;-52
2021/05/03 03:05:40;;;;;;;9.88;5.35;;;;;;;2.71;79.17;102047.63;5092361;28;20044;-52
2021/05/03 03:08:06;;;;;;;9.50;6.03;;;;;;;2.69;78.97;102046.81;5091891;28;20525;-53
2021/05/03 03:10:33;;;;;;;12.98;6.10;;;;;;;2.70;79.02;102045.94;5091913;28;20056;-50
2021/05/03 03:13:02;;;;;;;11.63;5.57;;;;;;;2.65;78.36;102051.16;5092105;28;20032;-51
2021/05/03 03:15:32;;;;;;;10.55;5.57;;;;;;;2.66;78.39;102041.66;5057031;28;20097;-49
2021/05/03 03:17:58;;;;;;;10.10;5.45;;;;;;;2.63;78.61;102049.47;5090619;28;20059;-51
2021/05/03 03:20:24;;;;;;;10.00;5.72;;;;;;;2.62;78.49;102050.34;5088199;28;20040;-48
2021/05/03 03:22:51;;;;;;;10.75;5.10;;;;;;;2.65;78.91;102047.72;5089229;28;20067;-50
2021/05/03 03:25:17;;;;;;;11.02;5.72;;;;;;;2.61;78.74;102054.69;5088503;28;20047;-50
2021/05/03 03:27:44;;;;;;;10.77;6.25;;;;;;;2.63;78.97;102052.06;5101114;28;20051;-48
2021/05/03 03:30:13;;;;;;;11.85;5.75;;;;;;;2.60;78.12;102050.34;5110419;28;20044;-51
2021/05/03 03:32:49;;;;;;;9.13;5.47;;;;;;;2.60;78.08;102050.34;5112975;28;20047;-53
2021/05/03 03:35:17;;;;;;;10.02;5.22;;;;;;;2.61;77.87;102040.84;5114414;28;20047;-50
2021/05/03 03:37:44;;;;;;;11.15;6.40;;;;;;;2.59;77.88;102040.00;5108468;28;20407;-48
2021/05/03 03:40:11;;;;;;;10.63;5.63;;;;;;;2.50;78.43;102038.38;5094158;28;20090;-48
2021/05/03 03:42:38;;;;;;;12.52;6.53;;;;;;;2.44;79.22;102036.72;5113686;28;20043;-49
2021/05/03 03:45:06;;;;;;;11.20;6.38;;;;;;;2.46;78.72;102034.94;5114257;28;20040;-47
2021/05/03 03:47:32;;;;;;;10.90;6.38;;;;;;;2.45;78.68;102030.63;5115082;28;20055;-50
2021/05/03 03:49:59;;;;;;;10.80;6.22;;;;;;;2.35;79.13;102031.63;5115711;28;20077;-50
2021/05/03 03:52:26;;;;;;;11.75;6.68;;;;;;;2.36;79.94;102033.38;5112432;28;20047;-48
2021/05/03 03:54:52;;;;;;;11.57;6.30;;;;;;;2.32;80.07;102031.69;5111999;28;20095;-54
2021/05/03 03:57:19;;;;;;;12.20;6.18;;;;;;;2.37;79.53;102029.88;5114324;28;20050;-51
2021/05/03 03:59:49;;;;;;;11.43;6.50;;;;;;;2.32;80.68;102034.28;5097603;28;20052;-51
2021/05/03 04:02:18;;;;;;;11.50;6.47;;;;;;;2.34;80.11;102035.94;5115590;28;20039;-51
2021/05/03 04:04:54;;;;;;;10.68;6.13;;;;;;;2.29;79.35;102031.69;5115354;28;20047;-49
2021/05/03 04:07:32;;;;;;;11.13;5.78;;;;;;;2.40;79.72;102040.25;5097058;28;20052;-47
2021/05/03 04:13:22;;;;;;;12.18;6.30;;;;;;;2.45;79.87;102032.38;5091322;28;20067;-53
2021/05/03 04:21:18;;;;;;;12.63;6.80;;;;;;;2.40;80.62;102031.56;5078016;28;20075;-51
2021/05/03 04:26:24;;;;;;;12.38;6.57;;;;;;;2.34;81.19;102035.94;5091188;28;20075;-47
2021/05/03 04:28:53;;;;;;;11.60;6.53;;;;;;;2.42;80.27;102035.03;5091242;28;20536;-48
2021/05/03 04:31:20;;;;;;;11.32;6.72;;;;;;;2.42;80.66;102033.28;5075154;28;20048;-48
2021/05/03 04:33:47;;;;;;;11.43;6.60;;;;;;;2.41;80.88;102030.69;5091684;28;20387;-48
2021/05/03 04:36:14;;;;;;;13.25;7.85;;;;;;;2.44;80.82;102023.75;5090623;28;20076;-52
2021/05/03 04:38:40;;;;;;;11.90;6.57;;;;;;;2.50;80.73;102031.44;5092930;28;20125;-50
2021/05/03 04:41:07;;;;;;;13.23;7.82;;;;;;;2.47;80.84;102030.63;5094563;28;20055;-48
2021/05/03 04:43:34;;;;;;;14.05;7.85;;;;;;;2.50;80.74;102022.81;5094110;28;20063;-48
2021/05/03 04:46:01;;;;;;;13.25;7.13;;;;;;;2.50;80.79;102035.78;5075657;28;20086;-48
2021/05/03 04:48:27;;;;;;;12.50;7.95;;;;;;;2.62;81.00;102034.75;5092671;28;20040;-52
2021/05/03 04:50:54;;;;;;;12.68;7.97;;;;;;;2.62;80.46;102026.97;5090974;28;20414;-51
2021/05/03 04:53:21;;;;;;;15.73;7.85;;;;;;;2.64;81.04;102035.59;5092166;28;20044;-47
2021/05/03 04:55:48;;;;;;;14.35;9.05;;;;;;;2.66;81.11;102029.50;5090782;28;20044;-51
2021/05/03 04:58:14;;;;;;;15.68;8.48;;;;;;;2.68;81.48;102027.75;5091684;28;20055;-51
2021/05/03 05:00:41;;;;;;;17.67;8.75;;;;;;;2.76;81.84;102030.25;5092053;28;20097;-48
2021/05/03 05:03:08;;;;;;;16.35;9.25;;;;;;;2.76;81.31;102035.44;5091104;28;20051;-47
2021/05/03 05:05:35;;;;;;;16.67;10.00;;;;;;;2.80;81.69;102031.91;5074065;28;20048;-48
2021/05/03 05:08:01;;;;;;;16.85;10.05;;;;;;;2.83;81.42;102033.63;5091831;28;20151;-50
2021/05/03 05:10:27;;;;;;;17.02;10.10;;;;;;;2.87;81.61;102033.53;5090584;28;20040;-51
2021/05/03 05:12:53;;;;;;;16.63;9.55;;;;;;;2.97;80.62;102036.91;5090406;28;20048;-51
2021/05/03 05:15:20;;;;;;;14.82;8.10;;;;;;;3.00;80.55;102036.84;5092942;28;20052;-50
2021/05/03 05:17:47;;;;;;;15.70;9.25;;;;;;;3.05;80.63;102034.16;5092293;28;20429;-51
2021/05/03 05:20:14;;;;;;;14.80;8.48;;;;;;;3.10;80.07;102037.56;5091531;28;20059;-52
2021/05/03 05:22:41;;;;;;;12.57;8.13;;;;;;;3.18;79.61;102030.50;5093795;28;20117;-46
2021/05/03 05:25:08;;;;;;;14.77;8.57;;;;;;;3.22;79.89;102024.38;5090753;28;20130;-49
2021/05/03 05:27:34;;;;;;;13.82;8.45;;;;;;;3.35;78.98;102018.97;5088262;28;20532;-50
2021/05/03 05:30:01;;;;;;;14.05;7.82;;;;;;;3.39;78.94;102020.66;5091708;28;20043;-48
2021/05/03 05:32:27;;;;;;;13.70;8.15;;;;;;;3.48;78.34;102014.44;5093187;28;20047;-48
2021/05/03 05:34:53;;;;;;;14.48;8.50;;;;;;;3.54;77.43;102016.94;5091315;28;20044;-48
2021/05/03 05:37:20;;;;;;;13.43;7.65;;;;;;;3.57;77.82;102008.22;5089944;28;20051;-48
2021/05/03 05:39:46;;;;;;;12.30;7.18;;;;;;;3.60;77.39;102008.16;5090386;28;20062;-49
2021/05/03 05:42:12;;;;;;;11.88;7.50;;;;;;;3.69;77.11;102002.81;5089056;28;20043;-49
2021/05/03 05:44:38;;;;;;;14.77;7.68;;;;;;;3.80;77.08;102015.63;5091583;28;20058;-49
2021/05/03 05:47:05;;;;;;;13.57;7.88;;;;;;;3.82;77.00;102014.72;5090253;28;20036;-49
2021/05/03 05:49:31;;;;;;;13.48;7.47;;;;;;;3.91;77.02;102016.28;5090038;28;20071;-46
2021/05/03 05:51:58;;;;;;;14.20;7.00;;;;;;;3.97;76.04;102015.34;5091527;28;20495;-48
2021/05/03 05:54:25;;;;;;;11.77;6.93;;;;;;;4.07;75.81;102016.84;5090393;28;20502;-48
2021/05/03 05:56:54;;;;;;;18.48;7.80;;;;;;;4.16;75.89;102015.81;5089243;28;20044;-47
2021/05/03 05:59:23;;;;;;;13.18;7.55;;;;;;;4.25;75.77;102013.03;5091978;28;20047;-46
2021/05/03 06:01:50;;;;;;;14.90;7.03;;;;;;;4.33;74.63;102018.09;5092787;28;20716;-49
2021/05/03 06:04:17;;;;;;;11.57;7.47;;;;;;;4.37;74.13;102006.72;5091759;28;20067;-50
2021/05/03 06:06:43;;;;;;;12.93;6.95;;;;;;;4.41;73.94;102008.38;5092284;28;20307;-51
2021/05/03 06:09:10;;;;;;;11.27;7.35;;;;;;;4.55;72.67;102010.69;5090047;28;20157;-49
2021/05/03 06:11:36;;;;;;;12.43;6.90;;;;;;;4.54;73.49;102008.97;5088971;28;20051;-52
2021/05/03 06:14:03;;;;;;;12.90;7.05;;;;;;;4.65;72.58;102007.00;5090787;28;20039;-49
2021/05/03 06:16:29;;;;;;;14.40;7.55;;;;;;;4.68;72.51;102006.94;5089378;28;20059;-50
2021/05/03 06:18:55;;;;;;;12.20;7.40;;;;;;;4.69;72.27;102010.38;5091164;28;20048;-48
2021/05/03 06:21:22;;;;;;;16.08;7.20;;;;;;;4.78;72.41;102009.34;5088955;28;20062;-51
2021/05/03 06:23:48;;;;;;;15.02;7.22;;;;;;;4.82;71.11;102003.16;5090298;28;20059;-52
2021/05/03 06:26:14;;;;;;;14.30;7.22;;;;;;;4.89;70.92;102010.81;5089507;28;20051;-53
2021/05/03 06:28:41;;;;;;;14.10;7.70;;;;;;;4.95;70.92;102006.34;5090430;28;20142;-51
2021/05/03 06:31:07;;;;;;;11.43;6.30;;;;;;;5.03;70.90;102010.50;5073659;28;20064;-50
2021/05/03 06:33:33;;;;;;;11.60;6.38;;;;;;;5.05;70.09;102007.84;5090374;28;20422;-48
2021/05/03 06:36:00;;;;;;;12.15;6.53;;;;;;;5.14;69.36;102009.38;5088044;28;20052;-49
2021/05/03 06:38:26;;;;;;;11.32;5.93;;;;;;;5.19;69.44;102010.97;5089034;28;20048;-47
2021/05/03 06:40:52;;;;;;;11.65;6.38;;;;;;;5.28;69.42;102009.06;5088429;28;20052;-51
2021/05/03 06:43:18;;;;;;;11.82;6.05;;;;;;;5.31;69.37;102004.59;5090145;28;20052;-46
2021/05/03 06:45:45;;;;;;;13.98;6.22;;;;;;;5.40;68.42;102000.94;5088979;28;20475;-48
2021/05/03 06:48:12;;;;;;;10.00;5.95;;;;;;;5.47;68.09;101997.25;5070491;28;20499;-53
2021/05/03 06:50:45;;;;;;;10.85;5.72;;;;;;;5.62;67.81;102001.22;5088935;28;20139;-51
2021/05/03 06:53:13;;;;;;;11.37;5.67;;;;;;;5.76;67.57;101993.03;5088989;28;20076;-53
2021/05/03 06:55:45;;;;;;;11.55;5.40;;;;;;;5.80;67.64;101994.66;5088483;28;20377;-52
2021/05/03 06:58:12;;;;;;;8.35;5.03;;;;;;;5.93;65.80;101993.44;5089388;28;20123;-52
2021/05/03 07:00:40;;;;;;;11.85;5.07;;;;;;;5.99;64.45;101995.06;5090107;28;20096;-49
2021/05/03 07:03:08;;;;;;;8.48;4.90;;;;;;;6.10;64.91;102005.22;5090029;28;20063;-53
2021/05/03 07:05:35;;;;;;;7.88;4.60;;;;;;;6.16;64.89;102001.56;5091219;28;20728;-51
2021/05/03 07:08:02;;;;;;;9.50;4.90;;;;;;;6.29;64.13;101996.88;5077195;28;20040;-49
2021/05/03 07:10:29;;;;;;;7.50;5.03;;;;;;;6.38;61.44;101991.34;5094661;28;20507;-47
2021/05/03 07:12:55;;;;;;;8.25;4.30;;;;;;;6.48;61.04;101997.19;5094509;28;20058;-50
2021/05/03 07:15:22;;;;;;;8.18;4.05;;;;;;;6.57;61.31;101997.75;5093840;28;20063;-47
2021/05/03 07:17:48;;;;;;;9.48;4.97;;;;;;;6.71;60.38;101993.88;5092321;28;20437;-50
2021/05/03 07:20:16;;;;;;;9.18;4.00;;;;;;;6.80;59.79;101992.72;5091864;28;20062;-49
2021/05/03 07:22:43;;;;;;;9.27;4.57;;;;;;;6.87;59.77;101987.28;5093593;28;20434;-49
2021/05/03 07:25:11;;;;;;;9.18;4.18;;;;;;;6.99;59.22;101983.38;5092692;28;20044;-50
2021/05/03 07:27:38;;;;;;;8.63;3.92;;;;;;;7.07;58.31;101981.38;5089938;28;20052;-54
2021/05/03 07:30:07;;;;;;;8.95;4.25;;;;;;;7.16;59.14;101980.25;5092924;28;20048;-47
2021/05/03 07:32:35;;;;;;;8.20;4.22;;;;;;;7.41;58.33;101976.81;5094438;28;20054;-53
2021/05/03 07:35:02;;;;;;;7.90;4.15;;;;;;;7.44;58.71;101976.69;5092220;28;20159;-51
2021/05/03 07:37:29;;;;;;;7.97;4.32;;;;;;;7.45;57.76;101971.41;5091790;28;20043;-54
2021/05/03 07:40:00;;;;;;;9.85;4.72;;;;;;;7.65;58.32;101969.00;5093517;28;20060;-53
2021/05/03 07:42:26;;;;;;;10.20;5.03;;;;;;;7.83;57.37;101971.00;5091392;28;20065;-50
2021/05/03 07:45:06;;;;;;;9.93;4.90;;;;;;;8.12;56.49;101966.47;5092250;28;20559;-47
2021/05/03 07:47:33;;;;;;;8.00;4.72;;;;;;;8.19;58.00;101959.22;5093251;28;20048;-50
2021/05/03 07:50:00;;;;;;;10.45;5.32;;;;;;;8.37;57.12;101961.16;5091970;28;20449;-51
2021/05/03 07:52:30;;;;;;;11.30;5.68;;;;;;;8.48;57.16;101960.78;5092836;28;20225;-47
2021/05/03 07:54:58;;;;;;;9.93;6.38;;;;;;;8.52;55.89;101958.88;5092044;28;20056;-51
2021/05/03 07:57:25;;;;;;;12.10;5.65;;;;;;;8.64;56.08;101953.16;5089619;28;20063;-50
2021/05/03 07:59:52;;;;;;;9.98;5.97;;;;;;;8.85;55.54;101958.47;5091723;28;20062;-51
2021/05/03 08:02:18;;;;;;;10.80;6.70;;;;;;;8.98;56.34;101958.84;5092716;28;20044;-53
2021/05/03 08:04:46;;;;;;;9.93;6.47;;;;;;;9.25;57.03;101956.84;5091456;28;20101;-50
2021/05/03 08:07:13;;;;;;;17.45;7.03;;;;;;;9.44;54.48;101955.13;5091450;28;20048;-52
2021/05/03 08:09:39;;;;;;;13.45;6.72;;;;;;;9.57;54.20;101949.34;5092993;28;20047;-51
2021/05/03 08:12:08;;;;;;;11.90;7.72;;;;;;;9.75;53.22;101951.19;5089244;28;20063;-47
2021/05/03 08:14:36;;;;;;;14.77;7.72;;;;;;;9.98;51.57;101944.91;5094187;28;20052;-50
2021/05/03 08:17:06;;;;;;;14.32;8.88;;;;;;;10.26;52.15;101955.94;5091378;28;20056;-52
2021/05/03 08:19:34;;;;;;;12.93;8.45;;;;;;;10.52;51.36;101951.28;5091939;28;20052;-55
2021/05/03 08:22:02;;;;;;;14.18;7.40;;;;;;;10.69;50.20;101943.44;5092077;28;20384;-54
2021/05/03 08:24:30;;;;;;;12.40;8.23;;;;;;;10.82;49.79;101938.41;5091330;28;20047;-54
2021/05/03 08:26:58;;;;;;;13.10;8.57;;;;;;;11.13;49.90;101929.84;5089315;28;20058;-54
2021/05/03 08:29:25;;;;;;;13.70;8.55;;;;;;;11.45;48.87;101937.06;5093561;28;20052;-55
2021/05/03 08:31:51;;;;;;;12.95;8.38;;;;;;;11.70;47.93;101938.41;5091827;28;20052;-53
2021/05/03 08:34:18;;;;;;;12.75;8.40;;;;;;;11.86;48.08;101938.47;5091241;28;20507;-56
2021/05/03 08:36:44;;;;;;;11.68;8.15;;;;;;;12.02;48.37;101930.63;5091868;28;20052;-56
2021/05/03 08:39:11;;;;;;;13.80;9.00;;;;;;;12.16;46.03;101926.28;5092113;28;20040;-56
2021/05/03 08:41:39;;;;;;;15.43;9.65;;;;;;;12.23;46.05;101925.94;5090080;28;20142;-52
2021/05/03 08:44:05;;;;;;;15.23;8.90;;;;;;;12.29;47.00;101929.09;5089206;28;20044;-52
2021/05/03 08:46:34;;;;;;;13.55;8.93;;;;;;;12.27;46.52;101920.44;5091455;28;20048;-52
2021/05/03 08:51:50;;;;;;;14.73;9.13;;;;;;;12.57;46.43;101914.38;5090883;28;20650;-52
2021/05/03 08:54:31;;;;;;;14.68;8.65;;;;;;;12.51;46.10;101926.09;5091171;28;20055;-51
2021/05/03 08:56:57;;;;;;;12.15;8.43;;;;;;;12.79;45.75;101914.00;5087958;28;20660;-52
2021/05/03 08:59:24;;;;;;;12.15;8.30;;;;;;;13.06;45.28;101909.84;5089876;28;20056;-52
2021/05/03 09:01:52;;;;;;;13.10;8.65;;;;;;;13.33;44.74;101910.84;5092694;28;20052;-57
2021/05/03 09:04:19;;;;;;;14.77;9.18;;;;;;;13.42;43.72;101900.72;5091751;28;20044;-51
2021/05/03 09:07:04;;;;;;;12.68;8.98;;;;;;;13.68;44.23;101901.75;5092231;28;20048;-49
2021/05/03 09:09:31;;;;;;;11.77;8.02;;;;;;;13.71;43.83;101911.28;5091504;28;20048;-50
2021/05/03 09:12:00;;;;;;;13.20;8.50;;;;;;;13.85;43.20;101903.34;5089517;28;20101;-49
2021/05/03 09:14:26;;;;;;;12.75;8.75;;;;;;;14.01;42.10;101904.06;5105004;28;20048;-57
2021/05/03 09:16:52;;;;;;;12.27;8.95;;;;;;;13.93;42.55;101900.22;5102572;28;20412;-57
2021/05/03 09:19:19;;;;;;;13.48;9.25;;;;;;;14.03;42.95;101898.72;5091445;28;20048;-57
2021/05/03 09:21:46;;;;;;;11.82;8.73;;;;;;;14.11;42.93;101898.22;5090723;28;20047;-49
2021/05/03 09:24:16;;;;;;;13.70;8.43;;;;;;;14.48;42.74;101885.25;5090419;28;20411;-52
2021/05/03 09:27:01;;;;;;;13.68;9.05;;;;;;;14.68;42.67;101884.84;5089571;28;20044;-57
2021/05/03 09:29:30;;;;;;;12.40;8.45;;;;;;;15.13;41.34;101883.66;5095978;28;20077;-52
2021/05/03 09:31:57;;;;;;;13.27;8.15;;;;;;;15.24;41.14;101888.22;5111583;28;20043;-57
2021/05/03 09:34:32;;;;;;;13.82;8.32;;;;;;;15.60;40.12;101886.63;5111467;28;20040;-57
2021/05/03 09:37:17;;;;;;;12.27;8.43;;;;;;;15.66;39.01;101883.53;5112343;28;20491;-57
2021/05/03 09:39:45;;;;;;;12.40;8.38;;;;;;;15.71;39.09;101876.97;5112571;28;20048;-57
2021/05/03 09:42:12;;;;;;;11.75;8.73;;;;;;;15.85;39.08;101873.34;5112540;28;20398;-54
2021/05/03 09:44:39;;;;;;;12.45;7.95;;;;;;;16.11;38.28;101875.94;5108988;28;20101;-53
2021/05/03 09:47:05;;;;;;;12.10;7.88;;;;;;;16.27;37.93;101866.88;5093148;28;20078;-54
2021/05/03 09:49:32;;;;;;;12.73;8.50;;;;;;;15.81;38.49;101860.44;5093166;28;20055;-53
2021/05/03 09:52:00;;;;;;;11.63;8.10;;;;;;;15.92;38.04;101860.50;5091050;28;20043;-57
2021/05/03 09:54:31;;;;;;;9.68;7.38;;;;;;;16.04;37.66;101864.09;5089498;28;20050;-58
2021/05/03 09:57:00;;;;;;;12.57;7.63;;;;;;;16.28;36.96;101852.63;5091625;28;20047;-58
2021/05/03 09:59:43;;;;;;;12.88;8.55;;;;;;;16.35;36.64;101846.78;5094018;28;20561;-57
2021/05/03 10:02:27;;;;;;;12.50;8.48;;;;;;;16.35;37.28;101852.06;5110128;28;20138;-55
2021/05/03 10:04:59;;;;;;;10.95;8.13;;;;;;;16.51;36.78;101842.97;5112645;28;20542;-62
2021/05/03 10:07:28;;;;;;;11.80;8.00;;;;;;;16.72;37.00;101832.56;5110790;28;20043;-58
2021/05/03 10:10:07;;;;;;;11.30;8.02;;;;;;;16.65;36.69;101831.34;5110969;28;20062;-55
2021/05/03 10:12:34;;;;;;;10.95;7.38;;;;;;;16.50;35.79;101835.97;5107339;28;20047;-53
2021/05/03 10:15:06;;;;;;;12.82;8.35;;;;;;;16.83;35.79;101829.91;5091016;28;20054;-53
2021/05/03 10:17:32;;;;;;;11.30;8.27;;;;;;;16.99;35.40;101821.66;5110364;28;20047;-53
2021/05/03 10:20:00;;;;;;;10.75;7.85;;;;;;;17.04;35.37;101824.81;5111252;28;20119;-51
2021/05/03 10:22:29;;;;;;;11.55;7.72;;;;;;;17.33;35.83;101824.34;5111138;28;20480;-52
2021/05/03 10:24:58;;;;;;;11.57;7.53;;;;;;;17.64;35.19;101813.97;5109931;28;20046;-52
2021/05/03 10:27:25;;;;;;;12.35;8.15;;;;;;;17.44;34.44;101810.22;5109536;28;20595;-48
2021/05/03 10:30:25;;;;;;;12.73;8.40;;;;;;;17.57;34.36;101807.41;5100266;28;20048;-52
2021/05/03 10:33:02;;;;;;;12.48;8.20;;;;;;;17.23;34.77;101818.91;5057945;28;20064;-51
2021/05/03 10:35:34;;;;;;;11.70;8.32;;;;;;;17.36;33.44;101802.84;5068547;28;20152;-52
2021/05/03 10:38:00;;;;;;;13.00;8.85;;;;;;;17.27;33.90;101808.88;5068670;28;20044;-51
2021/05/03 10:40:29;;;;;;;12.18;8.02;;;;;;;17.23;33.63;101804.75;5068849;28;20504;-51
2021/05/03 10:43:04;;;;;;;12.18;8.05;;;;;;;17.10;33.33;101796.03;5068326;28;20071;-57
2021/05/03 10:45:54;;;;;;;12.30;7.25;;;;;;;16.90;32.85;101801.94;5083128;28;20777;-57
2021/05/03 10:51:28;;;;;;;10.40;7.30;;;;;;;16.78;34.20;101791.38;5092554;28;20109;-58
2021/05/03 10:53:54;;;;;;;11.65;8.20;;;;;;;16.92;33.53;101785.91;5103904;28;20035;-58
2021/05/03 10:56:38;;;;;;;11.75;8.70;;;;;;;17.12;34.19;101788.81;5107142;28;20134;-57
2021/05/03 10:59:11;;;;;;;11.10;8.85;;;;;;;17.17;33.29;101787.47;5109228;28;20066;-58
2021/05/03 11:01:53;;;;;;;11.20;8.40;;;;;;;17.26;32.93;101775.31;5108831;28;20054;-58
2021/05/03 11:04:29;;;;;;;11.63;7.80;;;;;;;17.07;33.22;101770.59;5109751;28;20039;-53
2021/05/03 11:06:55;;;;;;;11.18;7.88;;;;;;;17.31;33.21;101759.81;5092011;28;20036;-58
2021/05/03 11:09:28;;;;;;;11.77;8.10;;;;;;;17.42;33.35;101764.28;5091490;28;20048;-59
2021/05/03 11:11:59;;;;;;;10.00;7.63;;;;;;;17.66;32.89;101747.34;5092153;28;20498;-58
2021/05/03 11:14:29;;;;;;;12.57;8.55;;;;;;;17.56;32.93;101742.75;5089408;28;20483;-58
2021/05/03 11:17:02;;;;;;;12.20;8.68;;;;;;;17.67;32.23;101741.88;5090249;28;20513;-58
2021/05/03 11:19:32;;;;;;;13.13;8.35;;;;;;;17.18;31.69;101746.66;5071994;28;20059;-58
2021/05/03 11:21:59;;;;;;;11.75;8.80;;;;;;;17.47;32.20;101740.81;5101007;28;20058;-58
2021/05/03 11:24:33;;;;;;;10.23;7.18;;;;;;;17.27;31.39;101739.75;5092683;28;20105;-58
2021/05/03 11:27:10;;;;;;;11.05;7.55;;;;;;;17.69;31.08;101731.94;5099615;28;20039;-59
2021/05/03 11:29:53;;;;;;;10.45;7.32;;;;;;;17.14;31.30;101729.25;5110392;28;20123;-58
2021/05/03 11:32:32;;;;;;;9.85;7.32;;;;;;;17.14;31.52;101739.03;5109231;28;20047;-58
2021/05/03 11:35:04;;;;;;;13.50;7.78;;;;;;;17.44;31.89;101734.91;5109960;28;20056;-58
2021/05/03 11:45:30;;;;;;;11.77;6.70;;;;;;;17.90;29.84;101723.19;5110679;28;20442;-58
2021/05/03 11:47:59;;;;;;;11.60;6.72;;;;;;;17.26;30.16;101722.13;5110727;28;20137;-58
2021/05/03 11:50:27;;;;;;;10.27;7.43;;;;;;;17.10;30.72;101719.84;5110122;28;20073;-58
2021/05/03 11:52:58;;;;;;;10.32;6.97;;;;;;;17.28;30.98;101720.19;5112033;28;20047;-58
2021/05/03 11:55:25;;;;;;;10.80;7.65;;;;;;;17.37;30.70;101718.63;5113739;28;20055;-59